Time;durP1;ratioP1;P1;durP2;ratioP2;P2;SDS_P1;SDS_P2;PMS_P1;PMS_P2;Temp;Humidity;BMP_temperature;BMP_pressure;BME280_temperature;BME280_humidity;BME280_pressure;Samples;Min_cycle;Max_cycle;Signal;HPM_P1;HPM_P2
2021/12/06 00:00:42;;;;;;;8.90;7.57;;;;;;;;;;5060706;28;20300;-64
2021/12/06 00:03:12;;;;;;;34.17;18.00;;;;;;;;;;5073518;28;20647;-62
2021/12/06 00:05:39;;;;;;;37.17;22.10;;;;;;;;;;5069512;28;20274;-64
2021/12/06 00:08:06;;;;;;;39.33;23.47;;;;;;;;;;5060507;28;20213;-63
2021/12/06 00:10:34;;;;;;;33.80;19.77;;;;;;;;;;5078944;28;20240;-63
2021/12/06 00:13:01;;;;;;;21.40;12.63;;;;;;;;;;5062214;28;20229;-64
2021/12/06 00:15:32;;;;;;;16.47;10.97;;;;;;;;;;5055265;28;20718;-64
2021/12/06 00:18:01;;;;;;;12.00;9.20;;;;;;;;;;5056431;28;20729;-63
2021/12/06 00:20:29;;;;;;;10.43;7.77;;;;;;;;;;5066865;28;20228;-65
2021/12/06 00:22:57;;;;;;;10.97;7.67;;;;;;;;;;5057226;28;20217;-63
2021/12/06 00:25:24;;;;;;;10.53;7.27;;;;;;;;;;5074778;28;20210;-63
2021/12/06 00:27:52;;;;;;;9.67;8.33;;;;;;;;;;5074167;28;20304;-64
2021/12/06 00:30:20;;;;;;;9.50;7.33;;;;;;;;;;5055583;28;20637;-63
2021/12/06 00:32:47;;;;;;;12.47;9.77;;;;;;;;;;5049459;28;20281;-62
2021/12/06 00:35:21;;;;;;;14.40;8.50;;;;;;;;;;5057409;28;20220;-63
2021/12/06 00:38:00;;;;;;;9.73;8.20;;;;;;;;;;5060195;28;20332;-64
2021/12/06 00:40:30;;;;;;;11.73;9.00;;;;;;;;;;5063267;28;20213;-64
2021/12/06 00:42:57;;;;;;;15.30;9.87;;;;;;;;;;5072848;28;20220;-65
2021/12/06 00:45:25;;;;;;;11.23;8.27;;;;;;;;;;5063564;28;20215;-64
2021/12/06 00:47:52;;;;;;;10.70;8.40;;;;;;;;;;5078361;28;20213;-64
2021/12/06 00:50:21;;;;;;;11.17;8.83;;;;;;;;;;5077987;28;20228;-64
2021/12/06 00:52:49;;;;;;;11.47;8.13;;;;;;;;;;5053814;28;20240;-63
2021/12/06 00:55:18;;;;;;;12.63;9.10;;;;;;;;;;5074170;28;20688;-62
2021/12/06 00:57:45;;;;;;;11.30;8.63;;;;;;;;;;5077748;28;20206;-64
2021/12/06 01:00:16;;;;;;;9.67;8.27;;;;;;;;;;5072884;28;20237;-63
2021/12/06 01:02:44;;;;;;;10.57;8.60;;;;;;;;;;5058786;28;20213;-62
2021/12/06 01:05:12;;;;;;;11.33;8.57;;;;;;;;;;5055669;28;20240;-63
2021/12/06 01:07:39;;;;;;;13.37;8.70;;;;;;;;;;5078186;28;20205;-63
2021/12/06 01:10:08;;;;;;;11.30;8.33;;;;;;;;;;5073179;28;20300;-64
2021/12/06 01:12:35;;;;;;;10.30;7.37;;;;;;;;;;5059420;28;20267;-62
2021/12/06 01:15:04;;;;;;;13.80;8.53;;;;;;;;;;5061924;28;20671;-65
2021/12/06 01:17:31;;;;;;;11.03;8.30;;;;;;;;;;5056549;28;20210;-62
2021/12/06 01:19:59;;;;;;;12.93;8.53;;;;;;;;;;5061645;28;20226;-64
2021/12/06 01:22:40;;;;;;;14.33;8.63;;;;;;;;;;5074960;28;20544;-63
2021/12/06 01:25:19;;;;;;;11.87;8.50;;;;;;;;;;5064597;28;20194;-63
2021/12/06 01:41:23;;;;;;;12.77;8.67;;;;;;;;;;5058162;28;20226;-64
2021/12/06 01:44:08;;;;;;;11.57;8.80;;;;;;;;;;5074626;28;20209;-64
2021/12/06 01:46:37;;;;;;;12.63;8.17;;;;;;;;;;5053652;28;20220;-64
2021/12/06 01:49:05;;;;;;;10.60;7.93;;;;;;;;;;5075125;28;20210;-62
2021/12/06 01:51:34;;;;;;;10.00;7.90;;;;;;;;;;5058738;28;20321;-62
2021/12/06 01:54:02;;;;;;;11.60;8.60;;;;;;;;;;5054229;28;20225;-62
2021/12/06 01:56:30;;;;;;;12.53;8.83;;;;;;;;;;5052499;28;20234;-63
2021/12/06 01:58:57;;;;;;;11.23;8.60;;;;;;;;;;5067515;28;20213;-64
2021/12/06 02:01:25;;;;;;;11.60;7.90;;;;;;;;;;5053874;28;20221;-64
2021/12/06 02:03:53;;;;;;;9.63;7.50;;;;;;;;;;5052563;28;20942;-63
2021/12/06 02:06:20;;;;;;;11.00;7.70;;;;;;;;;;5058485;28;20697;-64
2021/12/06 02:08:48;;;;;;;8.20;7.33;;;;;;;;;;5078824;28;20209;-63
2021/12/06 02:11:15;;;;;;;10.33;8.20;;;;;;;;;;5060618;28;20226;-64
2021/12/06 02:14:09;;;;;;;10.60;7.10;;;;;;;;;;5062790;28;20359;-64
2021/12/06 02:16:43;;;;;;;7.93;7.13;;;;;;;;;;5053521;28;20668;-64
2021/12/06 02:19:18;;;;;;;11.70;7.33;;;;;;;;;;5065670;28;21185;-64
2021/12/06 02:21:45;;;;;;;7.97;7.00;;;;;;;;;;5070657;28;20271;-63
2021/12/06 02:24:12;;;;;;;10.30;7.20;;;;;;;;;;5069055;28;20221;-64
2021/12/06 02:26:41;;;;;;;12.27;8.13;;;;;;;;;;5055442;28;20667;-66
2021/12/06 02:29:08;;;;;;;9.87;6.70;;;;;;;;;;5070839;28;20213;-64
2021/12/06 02:31:36;;;;;;;9.60;6.77;;;;;;;;;;5063313;28;20229;-63
2021/12/06 02:34:04;;;;;;;7.70;6.77;;;;;;;;;;5080295;28;20217;-64
2021/12/06 02:36:32;;;;;;;7.67;6.50;;;;;;;;;;5082072;28;20225;-63
2021/12/06 02:39:00;;;;;;;8.10;6.77;;;;;;;;;;5064251;28;20206;-64
2021/12/06 02:41:28;;;;;;;8.17;6.70;;;;;;;;;;5057828;28;20766;-63
2021/12/06 02:43:55;;;;;;;8.30;7.13;;;;;;;;;;5084675;28;20259;-64
2021/12/06 02:46:23;;;;;;;10.63;7.27;;;;;;;;;;5068781;28;20209;-65
2021/12/06 02:48:51;;;;;;;7.87;6.37;;;;;;;;;;5073233;28;20213;-64
2021/12/06 02:51:19;;;;;;;10.43;7.03;;;;;;;;;;5066665;28;20274;-63
2021/12/06 02:53:47;;;;;;;8.07;6.37;;;;;;;;;;5064493;28;20845;-63
2021/12/06 02:56:29;;;;;;;9.17;6.53;;;;;;;;;;5067868;28;20209;-64
2021/12/06 02:59:00;;;;;;;7.53;6.40;;;;;;;;;;5065302;28;20209;-65
2021/12/06 03:01:29;;;;;;;8.77;6.37;;;;;;;;;;5053307;28;20714;-62
2021/12/06 03:03:59;;;;;;;9.17;6.50;;;;;;;;;;5068198;28;20282;-64
2021/12/06 03:06:26;;;;;;;9.90;7.00;;;;;;;;;;5062969;28;20206;-63
2021/12/06 03:09:06;;;;;;;13.17;7.27;;;;;;;;;;5072596;28;20246;-63
2021/12/06 03:11:42;;;;;;;9.27;6.90;;;;;;;;;;5061161;28;20232;-62
2021/12/06 03:14:10;;;;;;;8.27;7.00;;;;;;;;;;5058462;28;20264;-63
2021/12/06 03:16:39;;;;;;;7.50;6.70;;;;;;;;;;5054312;28;20255;-64
2021/12/06 03:19:07;;;;;;;8.23;6.40;;;;;;;;;;5065621;28;20613;-63
2021/12/06 03:21:35;;;;;;;10.10;6.80;;;;;;;;;;5055691;28;20221;-65
2021/12/06 03:24:04;;;;;;;12.73;11.37;;;;;;;;;;5064735;28;20210;-64
2021/12/06 03:26:33;;;;;;;13.13;10.40;;;;;;;;;;5060573;28;20648;-63
2021/12/06 03:29:00;;;;;;;8.30;7.03;;;;;;;;;;5064648;28;20204;-63
2021/12/06 03:31:31;;;;;;;9.33;6.90;;;;;;;;;;5068518;28;20229;-63
2021/12/06 03:34:05;;;;;;;8.67;6.93;;;;;;;;;;5054087;28;20315;-64
2021/12/06 03:36:33;;;;;;;8.57;6.63;;;;;;;;;;5058552;28;20291;-64
2021/12/06 03:39:04;;;;;;;8.13;6.77;;;;;;;;;;5061725;28;20270;-64
2021/12/06 03:41:31;;;;;;;9.83;6.67;;;;;;;;;;5065354;28;20222;-65
2021/12/06 03:43:59;;;;;;;9.07;6.40;;;;;;;;;;5079921;28;20288;-63
2021/12/06 03:46:29;;;;;;;7.93;6.83;;;;;;;;;;5060029;28;20205;-62
2021/12/06 03:48:57;;;;;;;9.57;6.67;;;;;;;;;;5074288;28;20262;-64
2021/12/06 03:51:25;;;;;;;8.27;6.40;;;;;;;;;;5055708;28;20230;-62
2021/12/06 03:53:52;;;;;;;9.67;6.73;;;;;;;;;;5056265;28;20228;-63
2021/12/06 03:56:20;;;;;;;8.80;6.33;;;;;;;;;;5059537;28;20201;-64
2021/12/06 03:58:47;;;;;;;7.60;6.00;;;;;;;;;;5072406;28;20198;-63
2021/12/06 04:01:15;;;;;;;8.10;6.90;;;;;;;;;;5053705;28;20229;-62
2021/12/06 04:03:43;;;;;;;9.50;6.93;;;;;;;;;;5079745;28;20213;-63
2021/12/06 04:06:11;;;;;;;9.43;7.00;;;;;;;;;;5063498;28;20205;-63
2021/12/06 04:08:39;;;;;;;10.27;7.80;;;;;;;;;;5081828;28;20205;-64
2021/12/06 04:11:06;;;;;;;10.40;7.80;;;;;;;;;;5056815;28;20967;-64
2021/12/06 04:13:34;;;;;;;10.93;7.77;;;;;;;;;;5052168;28;20632;-63
2021/12/06 04:16:03;;;;;;;12.03;8.17;;;;;;;;;;5077437;28;20209;-64
2021/12/06 04:18:32;;;;;;;16.07;9.63;;;;;;;;;;5053029;28;20200;-63
2021/12/06 04:20:59;;;;;;;16.07;9.80;;;;;;;;;;5072871;28;20226;-62
2021/12/06 04:23:27;;;;;;;17.20;10.00;;;;;;;;;;5055148;28;20213;-63
2021/12/06 04:25:55;;;;;;;14.23;10.33;;;;;;;;;;5054469;28;20220;-65
2021/12/06 04:28:22;;;;;;;18.73;11.70;;;;;;;;;;5057731;28;20209;-64
2021/12/06 04:30:50;;;;;;;18.70;13.17;;;;;;;;;;5054357;28;20225;-63
2021/12/06 04:33:17;;;;;;;19.73;13.43;;;;;;;;;;5067301;28;20217;-64
2021/12/06 04:35:45;;;;;;;17.37;12.37;;;;;;;;;;5064507;28;20664;-63
2021/12/06 04:38:13;;;;;;;20.17;12.73;;;;;;;;;;5057503;28;20255;-64
2021/12/06 04:40:41;;;;;;;17.00;10.77;;;;;;;;;;5053584;28;20222;-64
2021/12/06 04:43:09;;;;;;;17.17;9.77;;;;;;;;;;5055003;28;20202;-63
2021/12/06 04:45:36;;;;;;;13.90;10.20;;;;;;;;;;5053783;28;20282;-64
2021/12/06 04:48:04;;;;;;;13.77;10.00;;;;;;;;;;5070665;28;20656;-64
2021/12/06 04:50:33;;;;;;;16.93;10.93;;;;;;;;;;5050966;28;20221;-64
2021/12/06 04:53:07;;;;;;;37.50;19.00;;;;;;;;;;5055292;28;20220;-64
2021/12/06 04:55:43;;;;;;;14.40;9.83;;;;;;;;;;5069514;28;20232;-64
2021/12/06 04:58:13;;;;;;;10.90;7.47;;;;;;;;;;5069286;28;20216;-64
2021/12/06 05:00:46;;;;;;;8.37;7.40;;;;;;;;;;5055023;28;20275;-62
2021/12/06 05:03:14;;;;;;;8.17;6.63;;;;;;;;;;5075544;28;20205;-64
2021/12/06 05:05:56;;;;;;;10.23;7.80;;;;;;;;;;5056297;28;20911;-63
2021/12/06 05:08:34;;;;;;;10.40;7.93;;;;;;;;;;5078322;28;20202;-62
2021/12/06 05:11:04;;;;;;;9.40;7.03;;;;;;;;;;5048861;28;20226;-63
2021/12/06 05:13:43;;;;;;;9.37;7.27;;;;;;;;;;5058957;28;20263;-62
2021/12/06 05:16:10;;;;;;;7.83;6.60;;;;;;;;;;5059308;28;20201;-64
2021/12/06 05:18:38;;;;;;;9.67;7.80;;;;;;;;;;5062125;28;20213;-64
2021/12/06 05:21:06;;;;;;;13.23;10.30;;;;;;;;;;5060148;28;20228;-65
2021/12/06 05:23:40;;;;;;;12.07;7.23;;;;;;;;;;5060130;28;20220;-63
2021/12/06 05:26:09;;;;;;;12.00;8.17;;;;;;;;;;5042626;28;20292;-65
2021/12/06 05:28:42;;;;;;;9.40;6.93;;;;;;;;;;5069373;28;20695;-63
2021/12/06 05:31:15;;;;;;;9.57;7.07;;;;;;;;;;5077099;28;20221;-65
2021/12/06 05:33:44;;;;;;;9.77;7.53;;;;;;;;;;5059378;28;20218;-63
2021/12/06 05:36:11;;;;;;;13.93;9.60;;;;;;;;;;5054956;28;20194;-65
2021/12/06 05:38:39;;;;;;;12.60;9.07;;;;;;;;;;5062339;28;20214;-64
2021/12/06 05:41:07;;;;;;;10.93;8.67;;;;;;;;;;5076044;28;20221;-64
2021/12/06 05:43:34;;;;;;;12.03;8.93;;;;;;;;;;5076657;28;20291;-63
2021/12/06 05:46:02;;;;;;;11.17;8.13;;;;;;;;;;5074293;28;20552;-62
2021/12/06 05:48:30;;;;;;;12.57;8.67;;;;;;;;;;5071436;28;20205;-64
2021/12/06 05:50:57;;;;;;;11.83;8.27;;;;;;;;;;5055413;28;20229;-63
2021/12/06 05:53:25;;;;;;;13.77;8.80;;;;;;;;;;5066734;28;20208;-64
2021/12/06 05:55:52;;;;;;;11.57;9.00;;;;;;;;;;5078236;28;20242;-64
2021/12/06 05:58:23;;;;;;;13.77;9.33;;;;;;;;;;5063738;28;20718;-64
2021/12/06 06:00:50;;;;;;;11.33;9.33;;;;;;;;;;5059223;28;20711;-64
2021/12/06 06:03:18;;;;;;;15.40;10.97;;;;;;;;;;5060605;28;20225;-63
2021/12/06 06:05:46;;;;;;;18.77;10.70;;;;;;;;;;5064218;28;20232;-64
2021/12/06 06:08:13;;;;;;;19.13;10.67;;;;;;;;;;5070326;28;20217;-62
2021/12/06 06:10:41;;;;;;;19.10;11.57;;;;;;;;;;5078973;28;20233;-63
2021/12/06 06:13:09;;;;;;;19.60;11.77;;;;;;;;;;5079547;28;20208;-64
2021/12/06 06:15:37;;;;;;;20.77;12.00;;;;;;;;;;5065063;28;20217;-64
2021/12/06 06:18:05;;;;;;;19.07;12.37;;;;;;;;;;5081941;28;20201;-64
2021/12/06 06:20:36;;;;;;;17.87;11.43;;;;;;;;;;5062967;28;20226;-64
2021/12/06 06:23:04;;;;;;;25.30;13.10;;;;;;;;;;5062278;28;20198;-64
2021/12/06 06:25:31;;;;;;;22.90;13.00;;;;;;;;;;5061424;28;20232;-64
2021/12/06 06:27:59;;;;;;;23.27;13.10;;;;;;;;;;5079774;28;20206;-64
2021/12/06 06:30:26;;;;;;;18.93;12.00;;;;;;;;;;5080452;28;20312;-64
2021/12/06 06:32:54;;;;;;;17.57;12.60;;;;;;;;;;5074394;28;20816;-64
2021/12/06 06:35:21;;;;;;;20.77;13.97;;;;;;;;;;5059312;28;20748;-64
2021/12/06 06:37:49;;;;;;;19.23;13.37;;;;;;;;;;5075032;28;20746;-64
2021/12/06 06:40:17;;;;;;;19.30;12.57;;;;;;;;;;5061417;28;20241;-64
2021/12/06 06:42:46;;;;;;;21.13;13.00;;;;;;;;;;5068210;28;20206;-63
2021/12/06 06:45:15;;;;;;;20.53;12.93;;;;;;;;;;5077156;28;20595;-64
2021/12/06 06:47:43;;;;;;;24.27;14.17;;;;;;;;;;5064995;28;20208;-64
2021/12/06 06:50:11;;;;;;;22.17;13.57;;;;;;;;;;5074508;28;20236;-64
2021/12/06 06:52:39;;;;;;;19.27;12.33;;;;;;;;;;5080222;28;20671;-64
2021/12/06 06:55:09;;;;;;;19.73;13.10;;;;;;;;;;5081765;28;20225;-63
2021/12/06 06:57:39;;;;;;;19.13;12.03;;;;;;;;;;5077897;28;20723;-64
2021/12/06 07:00:10;;;;;;;19.70;12.43;;;;;;;;;;5077589;28;20623;-63
2021/12/06 07:02:38;;;;;;;19.80;12.60;;;;;;;;;;5074546;28;20256;-63
2021/12/06 07:05:06;;;;;;;20.53;12.57;;;;;;;;;;5064657;28;20255;-64
2021/12/06 07:07:33;;;;;;;18.77;12.30;;;;;;;;;;5064222;28;20197;-63
2021/12/06 07:10:01;;;;;;;19.73;12.33;;;;;;;;;;5063232;28;20225;-64
2021/12/06 07:12:28;;;;;;;20.40;13.23;;;;;;;;;;5061998;28;20206;-65
2021/12/06 07:14:56;;;;;;;23.07;13.57;;;;;;;;;;5078524;28;20233;-64
2021/12/06 07:17:23;;;;;;;23.53;13.37;;;;;;;;;;5072295;28;20195;-64
2021/12/06 07:19:50;;;;;;;23.47;14.17;;;;;;;;;;5077897;28;20248;-64
2021/12/06 07:22:18;;;;;;;24.93;14.40;;;;;;;;;;5063821;28;20201;-64
2021/12/06 07:24:45;;;;;;;24.73;15.00;;;;;;;;;;5074397;28;20695;-64
2021/12/06 07:27:13;;;;;;;27.67;14.07;;;;;;;;;;5065837;28;20202;-64
2021/12/06 07:29:40;;;;;;;21.57;12.73;;;;;;;;;;5067580;28;20205;-64
2021/12/06 07:32:07;;;;;;;23.60;13.83;;;;;;;;;;5076821;28;20221;-63
2021/12/06 07:34:36;;;;;;;21.70;13.53;;;;;;;;;;5062757;28;20229;-64
2021/12/06 07:37:04;;;;;;;31.97;15.90;;;;;;;;;;5075953;28;20678;-65
2021/12/06 07:39:32;;;;;;;31.60;15.67;;;;;;;;;;5065632;28;20205;-63
2021/12/06 07:41:59;;;;;;;30.67;16.33;;;;;;;;;;5063194;28;20703;-64
2021/12/06 07:44:27;;;;;;;35.07;18.07;;;;;;;;;;5060295;28;20210;-64
2021/12/06 07:46:54;;;;;;;34.07;17.37;;;;;;;;;;5074730;28;20278;-65
2021/12/06 07:49:22;;;;;;;36.57;18.30;;;;;;;;;;5057545;28;20214;-63
2021/12/06 07:51:50;;;;;;;31.73;15.83;;;;;;;;;;5078621;28;20229;-64
2021/12/06 07:54:18;;;;;;;39.30;16.17;;;;;;;;;;5072573;28;20209;-63
2021/12/06 07:56:45;;;;;;;38.23;17.97;;;;;;;;;;5062411;28;20206;-64
2021/12/06 07:59:18;;;;;;;37.03;16.73;;;;;;;;;;5079532;28;20212;-65
2021/12/06 08:01:45;;;;;;;40.83;17.30;;;;;;;;;;5062741;28;20229;-64
2021/12/06 08:04:12;;;;;;;40.27;18.40;;;;;;;;;;5058419;28;20197;-63
2021/12/06 08:06:40;;;;;;;44.20;16.57;;;;;;;;;;5059685;28;20210;-63
2021/12/06 08:09:08;;;;;;;48.23;18.97;;;;;;;;;;5056790;28;20259;-62
2021/12/06 08:11:35;;;;;;;41.57;17.33;;;;;;;;;;5060956;28;20229;-64
2021/12/06 08:14:03;;;;;;;41.57;19.23;;;;;;;;;;5066470;28;20205;-63
2021/12/06 08:16:33;;;;;;;54.23;19.40;;;;;;;;;;5061424;28;20236;-65
2021/12/06 08:19:00;;;;;;;42.13;19.17;;;;;;;;;;5061280;28;20289;-65
2021/12/06 08:21:28;;;;;;;40.40;17.73;;;;;;;;;;5063727;28;20221;-65
2021/12/06 08:23:57;;;;;;;46.23;18.13;;;;;;;;;;5077563;28;20266;-64
2021/12/06 08:26:26;;;;;;;38.67;17.03;;;;;;;;;;5071332;28;20210;-64
2021/12/06 08:28:55;;;;;;;46.97;19.27;;;;;;;;;;5076306;28;20746;-63
2021/12/06 08:31:22;;;;;;;49.53;19.10;;;;;;;;;;5061468;28;20225;-64
2021/12/06 08:33:50;;;;;;;52.33;17.70;;;;;;;;;;5078809;28;20658;-63
2021/12/06 08:36:18;;;;;;;47.10;16.57;;;;;;;;;;5078985;28;20284;-64
2021/12/06 08:38:46;;;;;;;43.40;16.87;;;;;;;;;;5059338;28;20574;-63
2021/12/06 08:41:17;;;;;;;39.07;16.27;;;;;;;;;;5059306;28;20232;-63
2021/12/06 08:43:45;;;;;;;56.60;16.70;;;;;;;;;;5059454;28;20202;-63
2021/12/06 08:46:39;;;;;;;46.00;18.27;;;;;;;;;;5061811;28;20237;-62
2021/12/06 08:49:09;;;;;;;59.93;21.80;;;;;;;;;;5058710;28;20241;-64
2021/12/06 08:51:40;;;;;;;44.17;20.70;;;;;;;;;;5065693;28;20228;-63
2021/12/06 08:54:08;;;;;;;77.10;39.23;;;;;;;;;;5078125;28;20213;-63
2021/12/06 08:56:36;;;;;;;41.97;25.27;;;;;;;;;;5056557;28;20236;-65
2021/12/06 08:59:05;;;;;;;42.80;21.63;;;;;;;;;;5079262;28;20672;-63
2021/12/06 09:01:33;;;;;;;44.30;17.67;;;;;;;;;;5067149;28;20767;-63
2021/12/06 09:04:21;;;;;;;45.43;18.00;;;;;;;;;;5074304;28;20803;-63
2021/12/06 09:06:51;;;;;;;29.20;14.43;;;;;;;;;;5059662;28;20674;-62
2021/12/06 09:09:20;;;;;;;33.13;16.03;;;;;;;;;;5076399;28;20221;-63
2021/12/06 09:11:48;;;;;;;29.03;14.50;;;;;;;;;;5062840;28;20237;-63
2021/12/06 09:14:16;;;;;;;31.00;15.47;;;;;;;;;;5065431;28;20705;-64
2021/12/06 09:16:44;;;;;;;28.57;15.13;;;;;;;;;;5074998;28;20233;-62
2021/12/06 09:19:13;;;;;;;31.90;16.23;;;;;;;;;;5060315;28;20225;-62
2021/12/06 09:21:43;;;;;;;31.60;15.03;;;;;;;;;;5060036;28;20255;-63
2021/12/06 09:24:12;;;;;;;32.10;15.43;;;;;;;;;;5078971;28;20233;-63
2021/12/06 09:26:40;;;;;;;26.60;13.53;;;;;;;;;;5081422;28;20635;-63
2021/12/06 09:29:08;;;;;;;27.77;15.07;;;;;;;;;;5078460;28;20237;-63
2021/12/06 09:31:35;;;;;;;28.70;14.67;;;;;;;;;;5076430;28;20225;-62
2021/12/06 09:34:03;;;;;;;22.93;13.20;;;;;;;;;;5078180;28;20201;-63
2021/12/06 09:36:33;;;;;;;31.07;17.20;;;;;;;;;;5058448;28;20362;-63
2021/12/06 09:39:00;;;;;;;24.87;13.60;;;;;;;;;;5059704;28;20193;-64
2021/12/06 09:41:30;;;;;;;25.77;14.17;;;;;;;;;;5073551;28;20220;-64
2021/12/06 09:44:00;;;;;;;26.57;13.50;;;;;;;;;;5073005;28;20571;-64
2021/12/06 09:46:33;;;;;;;19.57;11.93;;;;;;;;;;5061373;28;20205;-63
2021/12/06 09:49:03;;;;;;;19.07;11.63;;;;;;;;;;5057479;28;20212;-64
2021/12/06 09:51:30;;;;;;;19.80;9.97;;;;;;;;;;5069176;28;20237;-64
2021/12/06 09:53:58;;;;;;;19.50;11.63;;;;;;;;;;5076648;28;20209;-63
2021/12/06 09:56:31;;;;;;;24.37;12.70;;;;;;;;;;5077358;28;20231;-63
2021/12/06 09:59:00;;;;;;;16.90;10.30;;;;;;;;;;5075158;28;20233;-64
2021/12/06 10:01:33;;;;;;;13.57;8.70;;;;;;;;;;5074902;28;20214;-62
2021/12/06 10:04:01;;;;;;;11.37;7.67;;;;;;;;;;5054392;28;20225;-63
2021/12/06 10:06:30;;;;;;;11.93;7.37;;;;;;;;;;5064959;28;20209;-64
2021/12/06 10:08:58;;;;;;;12.50;8.33;;;;;;;;;;5056206;28;20230;-64
2021/12/06 10:11:30;;;;;;;14.93;8.50;;;;;;;;;;5060485;28;20244;-62
2021/12/06 10:13:58;;;;;;;9.53;7.13;;;;;;;;;;5062340;28;20210;-62
2021/12/06 10:16:26;;;;;;;10.67;7.17;;;;;;;;;;5055472;28;20319;-64
2021/12/06 10:18:53;;;;;;;10.63;7.90;;;;;;;;;;5058728;28;20428;-63
2021/12/06 10:21:23;;;;;;;11.03;7.73;;;;;;;;;;5064578;28;20294;-63
2021/12/06 10:23:52;;;;;;;11.87;10.63;;;;;;;;;;5080159;28;20867;-64
2021/12/06 10:26:21;;;;;;;9.33;6.27;;;;;;;;;;5078992;28;20223;-65
2021/12/06 10:28:49;;;;;;;8.30;6.43;;;;;;;;;;5068253;28;20217;-65
2021/12/06 10:31:16;;;;;;;9.13;6.97;;;;;;;;;;5063742;28;20233;-63
2021/12/06 10:33:46;;;;;;;9.10;7.37;;;;;;;;;;5064739;28;20594;-63
2021/12/06 10:36:17;;;;;;;9.53;6.50;;;;;;;;;;5067843;28;20777;-63
2021/12/06 10:38:49;;;;;;;8.03;5.80;;;;;;;;;;5069266;28;20198;-63
2021/12/06 10:41:18;;;;;;;6.53;5.83;;;;;;;;;;5078171;28;20557;-64
2021/12/06 10:43:57;;;;;;;8.90;7.73;;;;;;;;;;5079938;28;20237;-63
2021/12/06 10:46:26;;;;;;;10.67;8.30;;;;;;;;;;5065857;28;20205;-64
2021/12/06 10:48:59;;;;;;;8.40;6.40;;;;;;;;;;5064987;28;20255;-63
2021/12/06 10:51:27;;;;;;;7.33;5.90;;;;;;;;;;5058859;28;20225;-65
2021/12/06 10:54:04;;;;;;;6.70;4.73;;;;;;;;;;5076725;28;20214;-62
2021/12/06 10:56:44;;;;;;;8.30;5.67;;;;;;;;;;5076329;28;20229;-63
2021/12/06 10:59:13;;;;;;;8.40;6.80;;;;;;;;;;5077269;28;20201;-64
2021/12/06 11:01:41;;;;;;;7.67;6.20;;;;;;;;;;5076480;28;20234;-62
2021/12/06 11:04:10;;;;;;;32.70;23.53;;;;;;;;;;5059979;28;20648;-62
2021/12/06 11:06:45;;;;;;;16.37;12.03;;;;;;;;;;5063452;28;20230;-64
2021/12/06 11:09:14;;;;;;;7.83;6.60;;;;;;;;;;5059792;28;20286;-62
2021/12/06 11:11:43;;;;;;;23.43;14.87;;;;;;;;;;5073182;28;20230;-64
2021/12/06 11:14:12;;;;;;;18.13;10.30;;;;;;;;;;5076596;28;20230;-62
2021/12/06 11:16:41;;;;;;;18.00;11.33;;;;;;;;;;5077578;28;20662;-64
2021/12/06 11:19:08;;;;;;;49.33;22.40;;;;;;;;;;5062988;28;20229;-63
2021/12/06 11:21:42;;;;;;;67.37;28.10;;;;;;;;;;5079728;28;20283;-63
2021/12/06 11:24:09;;;;;;;15.40;9.43;;;;;;;;;;5060432;28;20202;-62
2021/12/06 11:26:48;;;;;;;12.67;8.17;;;;;;;;;;5069178;28;20228;-64
2021/12/06 11:29:15;;;;;;;54.60;26.53;;;;;;;;;;5078094;28;20255;-64
2021/12/06 11:31:48;;;;;;;12.27;7.47;;;;;;;;;;5055748;28;20591;-65
2021/12/06 11:34:17;;;;;;;5.73;4.47;;;;;;;;;;5055208;28;20229;-64
2021/12/06 11:36:44;;;;;;;5.80;4.67;;;;;;;;;;5064144;28;20241;-63
2021/12/06 11:39:14;;;;;;;5.63;5.13;;;;;;;;;;5060884;28;20973;-64
2021/12/06 11:41:43;;;;;;;11.00;8.77;;;;;;;;;;5058598;28;20629;-63
2021/12/06 11:44:15;;;;;;;6.57;4.80;;;;;;;;;;5073943;28;20194;-63
2021/12/06 11:46:42;;;;;;;5.10;4.57;;;;;;;;;;5058934;28;20636;-65
2021/12/06 11:49:17;;;;;;;5.07;4.67;;;;;;;;;;5063980;28;20237;-64
2021/12/06 11:51:44;;;;;;;6.73;5.90;;;;;;;;;;5067699;28;20646;-64
2021/12/06 11:54:13;;;;;;;6.67;4.77;;;;;;;;;;5064737;28;20229;-64
2021/12/06 11:56:44;;;;;;;7.73;5.67;;;;;;;;;;5073486;28;20319;-64
2021/12/06 11:59:15;;;;;;;10.50;7.00;;;;;;;;;;5055070;28;20247;-63
2021/12/06 12:01:45;;;;;;;8.17;6.80;;;;;;;;;;5073239;28;20232;-64
2021/12/06 12:04:21;;;;;;;5.77;4.50;;;;;;;;;;5073397;28;20199;-63
2021/12/06 12:06:56;;;;;;;5.83;4.30;;;;;;;;;;5068485;28;20209;-63
2021/12/06 12:09:25;;;;;;;24.83;11.00;;;;;;;;;;5078414;28;20219;-64
2021/12/06 12:11:58;;;;;;;31.77;14.83;;;;;;;;;;5078090;28;20225;-65
2021/12/06 12:14:37;;;;;;;7.83;4.57;;;;;;;;;;5064037;28;20304;-63
2021/12/06 12:17:14;;;;;;;20.60;11.53;;;;;;;;;;5064251;28;20237;-64
2021/12/06 12:19:42;;;;;;;5.27;4.53;;;;;;;;;;5077753;28;20228;-63
2021/12/06 12:22:10;;;;;;;7.87;7.07;;;;;;;;;;5064182;28;20319;-63
2021/12/06 12:24:41;;;;;;;11.87;7.30;;;;;;;;;;5076314;28;20806;-64
2021/12/06 12:27:24;;;;;;;5.60;5.10;;;;;;;;;;5079604;28;20259;-64
2021/12/06 12:29:54;;;;;;;6.33;3.67;;;;;;;;;;5061947;28;20233;-63
2021/12/06 12:32:22;;;;;;;5.83;3.70;;;;;;;;;;5075583;28;20202;-64
2021/12/06 12:34:50;;;;;;;4.20;3.80;;;;;;;;;;5080894;28;20270;-64
2021/12/06 12:37:19;;;;;;;4.10;3.70;;;;;;;;;;5059516;28;20225;-63
2021/12/06 12:39:57;;;;;;;4.07;2.80;;;;;;;;;;5061021;28;20202;-64
2021/12/06 12:42:24;;;;;;;2.90;2.60;;;;;;;;;;5077270;28;20209;-64
2021/12/06 12:44:53;;;;;;;2.13;1.97;;;;;;;;;;5079586;28;20202;-64
2021/12/06 12:47:23;;;;;;;2.67;2.03;;;;;;;;;;5078821;28;20233;-62
2021/12/06 12:49:53;;;;;;;4.20;3.37;;;;;;;;;;5080160;28;20238;-64
2021/12/06 12:52:39;;;;;;;2.20;2.00;;;;;;;;;;5078869;28;20197;-62
2021/12/06 12:55:24;;;;;;;2.37;2.27;;;;;;;;;;5077457;28;20660;-64
2021/12/06 12:58:04;;;;;;;2.43;2.17;;;;;;;;;;5068041;28;20230;-64
2021/12/06 13:00:32;;;;;;;2.57;2.37;;;;;;;;;;5071746;28;20935;-63
2021/12/06 13:03:01;;;;;;;3.13;2.03;;;;;;;;;;5066124;28;20205;-62
2021/12/06 13:05:30;;;;;;;2.17;2.07;;;;;;;;;;5067576;28;20269;-63
2021/12/06 13:07:59;;;;;;;2.23;2.03;;;;;;;;;;5075122;28;20282;-62
2021/12/06 13:10:29;;;;;;;2.50;2.30;;;;;;;;;;5082296;28;20229;-64
2021/12/06 13:12:58;;;;;;;3.10;2.80;;;;;;;;;;5064647;28;20209;-64
2021/12/06 13:15:35;;;;;;;2.17;2.07;;;;;;;;;;5054509;28;20668;-64
2021/12/06 13:18:07;;;;;;;2.57;2.47;;;;;;;;;;5073500;28;20349;-64
2021/12/06 13:20:38;;;;;;;3.67;3.30;;;;;;;;;;5062006;28;20240;-64
2021/12/06 13:23:10;;;;;;;4.70;4.27;;;;;;;;;;5067656;28;20234;-64
2021/12/06 13:25:37;;;;;;;3.20;3.00;;;;;;;;;;5079401;28;20213;-63
2021/12/06 13:28:07;;;;;;;3.60;3.30;;;;;;;;;;5061045;28;20772;-63
2021/12/06 13:30:45;;;;;;;3.23;2.90;;;;;;;;;;5065704;28;20225;-64
2021/12/06 13:33:21;;;;;;;3.17;2.97;;;;;;;;;;5074480;28;20202;-63
2021/12/06 13:35:49;;;;;;;3.13;2.93;;;;;;;;;;5077052;28;20214;-63
2021/12/06 13:38:42;;;;;;;2.97;2.67;;;;;;;;;;5059743;28;20208;-64
2021/12/06 13:41:12;;;;;;;3.20;2.90;;;;;;;;;;5065514;28;20295;-63
2021/12/06 13:43:46;;;;;;;3.40;3.10;;;;;;;;;;5063112;28;20201;-64
2021/12/06 13:46:28;;;;;;;18.20;9.87;;;;;;;;;;5062375;28;20749;-63
2021/12/06 13:49:05;;;;;;;4.17;3.40;;;;;;;;;;5058813;28;20244;-63
2021/12/06 13:51:36;;;;;;;3.80;3.50;;;;;;;;;;5056054;28;20702;-64
2021/12/06 13:54:09;;;;;;;4.23;3.83;;;;;;;;;;5078416;28;20267;-63
2021/12/06 13:56:42;;;;;;;3.53;3.23;;;;;;;;;;5078625;28;20216;-62
2021/12/06 13:59:10;;;;;;;4.07;3.57;;;;;;;;;;5073842;28;20251;-63
2021/12/06 14:01:38;;;;;;;3.90;3.60;;;;;;;;;;5073161;28;20222;-64
2021/12/06 14:04:08;;;;;;;3.67;3.37;;;;;;;;;;5062971;28;20205;-63
2021/12/06 14:07:02;;;;;;;4.03;3.63;;;;;;;;;;5078133;28;20220;-64
2021/12/06 14:09:30;;;;;;;3.83;3.53;;;;;;;;;;5056330;28;20220;-63
2021/12/06 14:12:00;;;;;;;3.90;3.60;;;;;;;;;;5060832;28;20214;-63
2021/12/06 14:14:29;;;;;;;3.80;3.50;;;;;;;;;;5066569;28;20659;-64
2021/12/06 14:16:58;;;;;;;5.30;4.10;;;;;;;;;;5056989;28;20798;-64
2021/12/06 14:19:27;;;;;;;4.23;3.93;;;;;;;;;;5060541;28;20214;-63
2021/12/06 14:21:55;;;;;;;10.27;8.27;;;;;;;;;;5076283;28;20238;-63
2021/12/06 14:24:24;;;;;;;17.03;11.20;;;;;;;;;;5057844;28;20575;-63
2021/12/06 14:26:52;;;;;;;9.93;6.97;;;;;;;;;;5063171;28;20220;-63
2021/12/06 14:29:21;;;;;;;7.83;4.90;;;;;;;;;;5060604;28;20217;-64
2021/12/06 14:31:51;;;;;;;4.20;3.80;;;;;;;;;;5078483;28;20229;-62
2021/12/06 14:34:23;;;;;;;4.57;4.17;;;;;;;;;;5063863;28;20205;-64
2021/12/06 14:36:51;;;;;;;4.87;3.70;;;;;;;;;;5074284;28;20230;-64
2021/12/06 14:39:23;;;;;;;4.23;3.73;;;;;;;;;;5076474;28;20262;-63
2021/12/06 14:41:50;;;;;;;5.17;4.67;;;;;;;;;;5062300;28;20229;-64
2021/12/06 14:44:37;;;;;;;4.87;4.37;;;;;;;;;;5073972;28;20210;-64
2021/12/06 14:47:11;;;;;;;5.33;4.83;;;;;;;;;;5072986;28;20572;-65
2021/12/06 14:49:42;;;;;;;5.00;4.50;;;;;;;;;;5077426;28;20214;-64
2021/12/06 14:52:18;;;;;;;4.30;4.00;;;;;;;;;;5056290;28;20724;-64
2021/12/06 14:55:43;;;;;;;8.97;5.87;;;;;;;;;;5059591;28;20208;-64
2021/12/06 14:58:36;;;;;;;4.60;4.13;;;;;;;;;;5023057;28;20267;-64
2021/12/06 15:01:13;;;;;;;9.57;7.13;;;;;;;;;;5018361;28;20361;-64